Time;durP1;ratioP1;P1;durP2;ratioP2;P2;SDS_P1;SDS_P2;PMS_P1;PMS_P2;Temp;Humidity;BMP_temperature;BMP_pressure;BME280_temperature;BME280_humidity;BME280_pressure;Samples;Min_cycle;Max_cycle;Signal;HPM_P1;HPM_P2
2022/11/29 00:01:40;;;;;;;16.80;11.53;;;;;;;;;;5037477;28;20546;-68
2022/11/29 00:04:10;;;;;;;18.67;11.10;;;;;;;;;;5035397;28;20457;-68
2022/11/29 00:06:43;;;;;;;21.13;11.97;;;;;;;;;;5021041;28;20860;-68
2022/11/29 00:09:13;;;;;;;19.80;12.03;;;;;;;;;;5036846;28;20508;-67
2022/11/29 00:14:31;;;;;;;19.93;12.03;;;;;;;;;;5037930;28;20643;-68
2022/11/29 00:17:07;;;;;;;22.37;12.57;;;;;;;;;;5035556;28;20458;-69
2022/11/29 00:19:36;;;;;;;20.97;11.97;;;;;;;;;;5035392;28;20477;-67
2022/11/29 00:22:05;;;;;;;23.50;10.77;;;;;;;;;;5037518;28;20710;-66
2022/11/29 00:24:38;;;;;;;23.87;12.70;;;;;;;;;;5029464;28;20935;-67
2022/11/29 00:27:08;;;;;;;22.60;14.23;;;;;;;;;;5038768;28;20458;-66
2022/11/29 00:29:41;;;;;;;22.60;13.30;;;;;;;;;;5038399;28;20878;-66
2022/11/29 00:32:14;;;;;;;23.30;15.10;;;;;;;;;;5036978;28;20455;-66
2022/11/29 00:34:42;;;;;;;22.00;11.80;;;;;;;;;;5031278;28;20478;-68
2022/11/29 00:37:10;;;;;;;20.77;12.23;;;;;;;;;;5039450;28;20477;-68
2022/11/29 00:39:39;;;;;;;23.47;13.40;;;;;;;;;;5038261;28;20455;-65
2022/11/29 00:42:08;;;;;;;28.97;12.50;;;;;;;;;;5038717;28;20469;-67
2022/11/29 00:44:39;;;;;;;25.33;13.03;;;;;;;;;;5023161;28;20537;-67
2022/11/29 00:47:11;;;;;;;23.70;14.43;;;;;;;;;;5038463;28;20498;-67
2022/11/29 00:49:39;;;;;;;24.27;14.87;;;;;;;;;;5036711;28;20462;-68
2022/11/29 00:52:07;;;;;;;25.43;14.70;;;;;;;;;;5039398;28;20463;-66
2022/11/29 00:54:34;;;;;;;28.13;15.80;;;;;;;;;;5037580;28;20482;-67
2022/11/29 00:57:10;;;;;;;24.90;13.77;;;;;;;;;;5038228;28;20462;-67
2022/11/29 00:59:39;;;;;;;24.10;12.67;;;;;;;;;;5030055;28;20471;-67
2022/11/29 01:02:17;;;;;;;26.43;15.00;;;;;;;;;;5027621;28;20808;-67
2022/11/29 01:04:47;;;;;;;27.90;14.67;;;;;;;;;;5034976;28;20454;-67
2022/11/29 01:07:15;;;;;;;32.20;14.83;;;;;;;;;;5022601;28;20451;-65
2022/11/29 01:09:48;;;;;;;27.40;16.57;;;;;;;;;;5036398;28;21067;-66
2022/11/29 01:12:18;;;;;;;28.60;15.07;;;;;;;;;;5030339;28;20747;-66
2022/11/29 01:14:53;;;;;;;26.97;15.53;;;;;;;;;;5031207;28;20491;-68
2022/11/29 01:17:24;;;;;;;28.13;15.13;;;;;;;;;;5036076;28;20549;-67
2022/11/29 01:19:54;;;;;;;27.93;14.90;;;;;;;;;;5036804;28;20519;-68
2022/11/29 01:22:23;;;;;;;31.77;15.80;;;;;;;;;;5019688;28;20461;-67
2022/11/29 01:24:51;;;;;;;23.67;13.90;;;;;;;;;;5021116;28;20471;-67
2022/11/29 01:27:23;;;;;;;25.40;15.40;;;;;;;;;;5019295;28;20860;-67
2022/11/29 01:29:52;;;;;;;28.60;14.40;;;;;;;;;;5019274;28;20467;-67
2022/11/29 01:32:20;;;;;;;24.37;15.30;;;;;;;;;;5035767;28;20867;-67
2022/11/29 01:34:50;;;;;;;30.47;16.00;;;;;;;;;;5015515;28;20579;-68
2022/11/29 01:37:22;;;;;;;22.10;14.10;;;;;;;;;;5022379;28;20476;-68
2022/11/29 01:39:49;;;;;;;25.70;14.37;;;;;;;;;;5036253;28;20462;-68
2022/11/29 01:42:18;;;;;;;29.73;16.83;;;;;;;;;;5035582;28;20461;-68
2022/11/29 01:45:11;;;;;;;27.90;14.90;;;;;;;;;;5016396;28;20482;-68
2022/11/29 01:47:43;;;;;;;29.53;16.60;;;;;;;;;;5018045;28;20530;-67
2022/11/29 01:50:11;;;;;;;25.30;14.93;;;;;;;;;;5010534;28;20467;-67
2022/11/29 01:52:42;;;;;;;32.80;17.37;;;;;;;;;;5035657;28;20465;-67
2022/11/29 01:55:14;;;;;;;34.60;16.90;;;;;;;;;;5025610;28;20517;-67
2022/11/29 01:57:44;;;;;;;32.73;16.97;;;;;;;;;;5036719;28;20454;-67
2022/11/29 02:00:16;;;;;;;36.47;17.77;;;;;;;;;;5035484;28;20469;-67
2022/11/29 02:02:54;;;;;;;27.87;17.93;;;;;;;;;;5035853;28;20771;-67
2022/11/29 02:05:23;;;;;;;27.57;16.23;;;;;;;;;;5036670;28;20512;-67
2022/11/29 02:07:56;;;;;;;29.63;16.50;;;;;;;;;;5031718;28;20447;-67
2022/11/29 02:10:26;;;;;;;27.70;14.53;;;;;;;;;;5017946;28;20893;-68
2022/11/29 02:13:01;;;;;;;32.07;16.50;;;;;;;;;;5024261;28;20490;-68
2022/11/29 02:15:40;;;;;;;32.97;17.07;;;;;;;;;;5033208;28;20486;-67
2022/11/29 02:18:10;;;;;;;33.10;18.60;;;;;;;;;;5034150;28;20489;-67
2022/11/29 02:20:49;;;;;;;35.57;18.97;;;;;;;;;;5035097;28;20454;-67
2022/11/29 02:23:34;;;;;;;25.90;15.53;;;;;;;;;;5024668;28;20486;-66
2022/11/29 02:26:11;;;;;;;34.20;17.93;;;;;;;;;;5020084;28;20458;-67
2022/11/29 02:28:55;;;;;;;36.33;18.63;;;;;;;;;;5035091;28;20477;-67
2022/11/29 02:31:41;;;;;;;29.23;16.30;;;;;;;;;;4995540;28;20771;-66
2022/11/29 02:34:16;;;;;;;27.80;15.10;;;;;;;;;;5037530;28;20465;-67
2022/11/29 02:36:51;;;;;;;38.40;18.80;;;;;;;;;;5036171;28;20458;-67
2022/11/29 02:39:36;;;;;;;34.60;16.83;;;;;;;;;;5035442;28;20477;-67
2022/11/29 02:42:11;;;;;;;35.47;16.73;;;;;;;;;;5020745;28;20462;-67
2022/11/29 02:44:49;;;;;;;38.83;18.77;;;;;;;;;;5022330;28;20465;-67
2022/11/29 02:47:25;;;;;;;41.10;18.43;;;;;;;;;;5034516;28;20455;-67
2022/11/29 02:50:12;;;;;;;26.50;18.27;;;;;;;;;;5034033;28;20466;-67
2022/11/29 02:52:48;;;;;;;35.27;17.87;;;;;;;;;;5029881;28;20465;-67
2022/11/29 02:55:20;;;;;;;38.37;18.00;;;;;;;;;;5027870;28;20487;-67
2022/11/29 02:57:56;;;;;;;30.90;17.60;;;;;;;;;;5031738;28;20469;-67
2022/11/29 03:00:30;;;;;;;35.10;17.80;;;;;;;;;;5021940;28;20481;-67
2022/11/29 03:03:01;;;;;;;35.57;20.00;;;;;;;;;;5034145;28;20477;-67
2022/11/29 03:05:34;;;;;;;36.20;18.87;;;;;;;;;;5035300;28;20478;-66
2022/11/29 03:08:18;;;;;;;34.67;17.73;;;;;;;;;;5036486;28;20739;-66
2022/11/29 03:10:53;;;;;;;29.47;18.93;;;;;;;;;;5037706;28;20508;-66
2022/11/29 03:13:24;;;;;;;42.57;18.33;;;;;;;;;;5035670;28;20520;-67
2022/11/29 03:16:00;;;;;;;36.37;18.20;;;;;;;;;;5035145;28;20497;-67
2022/11/29 03:18:34;;;;;;;36.13;19.43;;;;;;;;;;5025843;28;20480;-67
2022/11/29 03:21:14;;;;;;;31.60;18.30;;;;;;;;;;5019308;28;20463;-67
2022/11/29 03:23:47;;;;;;;36.30;17.13;;;;;;;;;;5032992;28;20462;-68
2022/11/29 03:26:15;;;;;;;29.90;17.90;;;;;;;;;;5037389;28;20465;-66
2022/11/29 03:28:46;;;;;;;40.70;19.77;;;;;;;;;;5037748;28;20466;-66
2022/11/29 03:31:22;;;;;;;34.33;18.80;;;;;;;;;;5035959;28;20451;-66
2022/11/29 03:33:53;;;;;;;38.00;18.43;;;;;;;;;;5037478;28;20881;-66
2022/11/29 03:36:36;;;;;;;33.53;17.70;;;;;;;;;;5038209;28;20490;-68
2022/11/29 03:39:08;;;;;;;31.77;18.43;;;;;;;;;;5037196;28;21108;-67
2022/11/29 03:41:40;;;;;;;35.73;17.67;;;;;;;;;;5032802;28;20837;-68
2022/11/29 03:44:15;;;;;;;33.93;18.50;;;;;;;;;;5038248;28;20504;-68
2022/11/29 03:46:47;;;;;;;33.20;18.67;;;;;;;;;;5019610;28;20451;-65
2022/11/29 03:49:17;;;;;;;36.53;20.07;;;;;;;;;;5027935;28;20447;-68
2022/11/29 03:51:55;;;;;;;39.70;19.00;;;;;;;;;;5040537;28;20855;-68
2022/11/29 03:54:28;;;;;;;36.23;18.40;;;;;;;;;;5039467;28;20494;-68
2022/11/29 03:56:56;;;;;;;39.40;19.17;;;;;;;;;;5038461;28;20493;-66
2022/11/29 03:59:35;;;;;;;32.63;18.43;;;;;;;;;;5038621;28;20466;-67
2022/11/29 04:02:19;;;;;;;38.30;19.93;;;;;;;;;;5033371;28;20747;-67
2022/11/29 04:05:04;;;;;;;46.70;20.20;;;;;;;;;;5020102;28;20476;-67
2022/11/29 04:07:43;;;;;;;34.17;17.07;;;;;;;;;;5031294;28;20739;-67
2022/11/29 04:10:19;;;;;;;37.77;19.83;;;;;;;;;;5034909;28;20458;-68
2022/11/29 04:13:01;;;;;;;38.80;18.00;;;;;;;;;;5032124;28;20736;-66
2022/11/29 04:16:03;;;;;;;39.93;19.07;;;;;;;;;;5031545;28;20490;-67
2022/11/29 04:19:05;;;;;;;41.07;19.63;;;;;;;;;;5036808;28;20461;-67
2022/11/29 04:21:36;;;;;;;34.83;19.70;;;;;;;;;;4978186;28;20515;-67
2022/11/29 04:24:35;;;;;;;34.70;18.67;;;;;;;;;;4978516;28;20554;-68
2022/11/29 04:27:23;;;;;;;33.87;17.53;;;;;;;;;;5002601;28;20462;-67
2022/11/29 04:30:02;;;;;;;35.90;17.77;;;;;;;;;;5038373;28;20548;-67
2022/11/29 04:32:47;;;;;;;40.40;18.27;;;;;;;;;;5034887;28;20447;-67
2022/11/29 04:35:30;;;;;;;30.77;16.90;;;;;;;;;;5029033;28;20806;-67
2022/11/29 04:38:23;;;;;;;35.00;19.60;;;;;;;;;;5038104;28;20996;-67
2022/11/29 04:41:13;;;;;;;39.77;19.97;;;;;;;;;;5038754;28;20454;-67
2022/11/29 04:44:01;;;;;;;40.00;20.30;;;;;;;;;;5039278;28;20896;-67
2022/11/29 04:46:46;;;;;;;35.70;17.03;;;;;;;;;;5003126;28;20730;-67
2022/11/29 04:49:30;;;;;;;36.83;18.70;;;;;;;;;;5036734;28;20465;-67
2022/11/29 04:52:03;;;;;;;33.67;17.77;;;;;;;;;;5035449;28;20479;-67
2022/11/29 04:54:46;;;;;;;32.77;18.10;;;;;;;;;;5030132;28;20889;-67
2022/11/29 04:57:26;;;;;;;42.73;21.60;;;;;;;;;;5015955;28;20502;-67
2022/11/29 04:59:57;;;;;;;30.93;19.30;;;;;;;;;;5018214;28;20446;-67
2022/11/29 05:02:30;;;;;;;40.73;20.63;;;;;;;;;;5017713;28;20712;-67
2022/11/29 05:05:02;;;;;;;39.47;18.13;;;;;;;;;;5017776;28;20470;-67
2022/11/29 05:07:33;;;;;;;35.20;20.70;;;;;;;;;;5018469;28;20542;-67
2022/11/29 05:10:06;;;;;;;40.93;23.30;;;;;;;;;;5016820;28;20529;-67
2022/11/29 05:12:39;;;;;;;39.13;20.03;;;;;;;;;;5029931;28;20472;-67
2022/11/29 05:15:25;;;;;;;31.30;19.57;;;;;;;;;;5037619;28;20454;-67
2022/11/29 05:17:57;;;;;;;34.57;19.67;;;;;;;;;;5035689;28;20473;-67
2022/11/29 05:20:35;;;;;;;33.43;19.27;;;;;;;;;;5029290;28;20545;-67
2022/11/29 05:23:11;;;;;;;35.37;18.37;;;;;;;;;;5035483;28;20469;-67
2022/11/29 05:25:46;;;;;;;40.30;20.30;;;;;;;;;;5037382;28;20458;-67
2022/11/29 05:28:21;;;;;;;39.20;20.53;;;;;;;;;;5036575;28;20449;-67
2022/11/29 05:30:55;;;;;;;36.07;18.73;;;;;;;;;;5011571;28;20458;-67
2022/11/29 05:33:29;;;;;;;40.43;20.07;;;;;;;;;;5035165;28;20469;-67
2022/11/29 05:36:07;;;;;;;40.00;20.87;;;;;;;;;;5036547;28;20485;-67
2022/11/29 05:38:52;;;;;;;37.10;18.53;;;;;;;;;;5035646;28;20770;-67
2022/11/29 05:41:31;;;;;;;41.13;19.90;;;;;;;;;;5034338;28;20451;-67
2022/11/29 05:44:05;;;;;;;38.93;21.00;;;;;;;;;;5033510;28;20450;-67
2022/11/29 05:46:36;;;;;;;41.17;21.17;;;;;;;;;;5031117;28;20718;-67
2022/11/29 05:49:10;;;;;;;42.00;21.07;;;;;;;;;;5035345;28;20454;-67
2022/11/29 05:51:44;;;;;;;31.87;18.90;;;;;;;;;;5025855;28;20514;-67
2022/11/29 05:54:17;;;;;;;36.47;17.27;;;;;;;;;;5036105;28;20458;-67
2022/11/29 05:56:49;;;;;;;38.57;21.03;;;;;;;;;;5035477;28;20485;-67
2022/11/29 05:59:21;;;;;;;42.90;21.03;;;;;;;;;;5034974;28;20461;-68
2022/11/29 06:01:53;;;;;;;41.20;20.47;;;;;;;;;;5034716;28;20465;-67
2022/11/29 06:04:24;;;;;;;34.50;19.30;;;;;;;;;;5036083;28;20461;-68
2022/11/29 06:06:56;;;;;;;37.47;21.53;;;;;;;;;;5031258;28;21093;-67
2022/11/29 06:09:27;;;;;;;41.00;19.30;;;;;;;;;;5026598;28;20462;-67
2022/11/29 06:11:58;;;;;;;37.90;19.70;;;;;;;;;;5035823;28;20933;-67
2022/11/29 06:14:46;;;;;;;37.70;19.50;;;;;;;;;;5035923;28;20909;-66
2022/11/29 06:17:32;;;;;;;38.47;19.60;;;;;;;;;;5034982;28;20498;-67
2022/11/29 06:20:14;;;;;;;42.10;21.17;;;;;;;;;;5016106;28;20452;-69
2022/11/29 06:23:05;;;;;;;35.37;19.33;;;;;;;;;;5015244;28;21031;-67
2022/11/29 06:25:50;;;;;;;41.93;21.87;;;;;;;;;;5023923;28;20524;-68
2022/11/29 06:28:26;;;;;;;36.60;20.30;;;;;;;;;;5026488;28;20590;-69
2022/11/29 06:31:00;;;;;;;42.90;20.30;;;;;;;;;;5011138;28;20451;-69
2022/11/29 06:33:37;;;;;;;38.07;19.87;;;;;;;;;;5015481;28;20512;-69
2022/11/29 06:36:14;;;;;;;34.40;19.70;;;;;;;;;;5034605;28;20542;-69
2022/11/29 06:38:43;;;;;;;37.23;21.13;;;;;;;;;;5031328;28;20549;-67
2022/11/29 06:41:14;;;;;;;42.70;22.57;;;;;;;;;;5026867;28;20580;-68
2022/11/29 06:43:42;;;;;;;32.03;18.30;;;;;;;;;;5030145;28;20847;-68
2022/11/29 06:46:19;;;;;;;36.13;20.07;;;;;;;;;;5034380;28;20489;-68
2022/11/29 06:48:53;;;;;;;43.93;22.87;;;;;;;;;;5024706;28;20454;-68
2022/11/29 06:51:30;;;;;;;38.83;20.27;;;;;;;;;;5032327;28;20461;-68
2022/11/29 06:54:01;;;;;;;43.23;21.60;;;;;;;;;;5028794;28;20569;-68
2022/11/29 06:56:34;;;;;;;42.47;20.77;;;;;;;;;;5022091;28;20485;-69
2022/11/29 06:59:17;;;;;;;33.37;20.83;;;;;;;;;;5027356;28;20463;-67
2022/11/29 07:01:51;;;;;;;37.33;21.00;;;;;;;;;;5024916;28;20485;-68
2022/11/29 07:04:44;;;;;;;49.83;22.50;;;;;;;;;;5039155;28;20483;-69
2022/11/29 07:07:14;;;;;;;44.10;20.23;;;;;;;;;;5036051;28;20863;-68
2022/11/29 07:09:51;;;;;;;43.63;22.80;;;;;;;;;;5036952;28;20561;-68
2022/11/29 07:12:19;;;;;;;38.83;20.20;;;;;;;;;;5040952;28;20451;-67
2022/11/29 07:14:48;;;;;;;41.53;22.67;;;;;;;;;;5022662;28;20766;-67
2022/11/29 07:17:21;;;;;;;41.30;21.80;;;;;;;;;;5031996;28;20491;-66
2022/11/29 07:19:53;;;;;;;39.57;21.00;;;;;;;;;;5018615;28;20523;-66
2022/11/29 07:22:30;;;;;;;41.03;20.73;;;;;;;;;;5050544;28;20468;-66
2022/11/29 07:25:01;;;;;;;36.50;21.20;;;;;;;;;;5038643;28;20457;-67
2022/11/29 07:27:34;;;;;;;41.03;20.57;;;;;;;;;;5038246;28;20463;-66
2022/11/29 07:30:08;;;;;;;38.70;20.97;;;;;;;;;;5038568;28;21032;-66
2022/11/29 07:32:42;;;;;;;43.07;22.67;;;;;;;;;;5030087;28;20484;-68
2022/11/29 07:35:13;;;;;;;36.40;20.23;;;;;;;;;;5035616;28;20461;-66
2022/11/29 07:37:45;;;;;;;37.30;20.73;;;;;;;;;;5035461;28;20800;-67
2022/11/29 07:40:15;;;;;;;43.23;23.97;;;;;;;;;;5037814;28;20462;-68
2022/11/29 07:42:55;;;;;;;41.37;21.27;;;;;;;;;;5039448;28;20470;-67
2022/11/29 07:45:28;;;;;;;38.63;20.50;;;;;;;;;;5038775;28;20533;-66
2022/11/29 07:48:01;;;;;;;36.67;20.60;;;;;;;;;;5035852;28;20463;-67
2022/11/29 07:50:32;;;;;;;38.60;22.13;;;;;;;;;;5034530;28;20746;-67
2022/11/29 07:53:03;;;;;;;46.57;21.90;;;;;;;;;;5030595;28;20492;-67
2022/11/29 07:55:35;;;;;;;39.70;21.43;;;;;;;;;;5037749;28;20483;-67
2022/11/29 07:58:12;;;;;;;38.40;22.03;;;;;;;;;;5038011;28;20490;-67
2022/11/29 08:00:43;;;;;;;42.00;23.33;;;;;;;;;;5025115;28;20489;-67
2022/11/29 08:03:35;;;;;;;38.07;19.87;;;;;;;;;;5025277;28;20455;-68
2022/11/29 08:06:03;;;;;;;36.57;23.50;;;;;;;;;;5018125;28;20475;-68
2022/11/29 08:08:31;;;;;;;39.73;20.20;;;;;;;;;;5016585;28;20560;-68
2022/11/29 08:11:01;;;;;;;40.57;22.40;;;;;;;;;;5024487;28;20446;-68
2022/11/29 08:13:34;;;;;;;41.77;21.60;;;;;;;;;;5017598;28;20550;-68
2022/11/29 08:16:11;;;;;;;44.53;21.40;;;;;;;;;;5024817;28;20503;-67
2022/11/29 08:18:48;;;;;;;38.53;20.97;;;;;;;;;;5017657;28;20469;-68
2022/11/29 08:21:21;;;;;;;40.10;20.97;;;;;;;;;;5025756;28;20462;-68
2022/11/29 08:24:02;;;;;;;41.17;23.57;;;;;;;;;;5031752;28;20455;-69
2022/11/29 08:26:36;;;;;;;37.33;21.27;;;;;;;;;;5021133;28;20470;-69
2022/11/29 08:29:05;;;;;;;54.73;25.33;;;;;;;;;;5035875;28;20544;-68
2022/11/29 08:31:48;;;;;;;33.87;20.03;;;;;;;;;;5032438;28;20621;-68
2022/11/29 08:34:27;;;;;;;37.53;21.40;;;;;;;;;;5022834;28;20560;-69
2022/11/29 08:36:57;;;;;;;44.80;22.33;;;;;;;;;;5017492;28;20482;-69
2022/11/29 08:39:24;;;;;;;34.07;20.17;;;;;;;;;;5036533;28;20516;-68
2022/11/29 08:41:53;;;;;;;40.00;19.50;;;;;;;;;;5033476;28;20775;-68
2022/11/29 08:44:20;;;;;;;37.70;21.67;;;;;;;;;;5029210;28;20488;-68
2022/11/29 08:49:34;;;;;;;38.00;22.60;;;;;;;;;;5028942;28;20909;-68
2022/11/29 08:55:03;;;;;;;40.47;22.50;;;;;;;;;;5021550;28;20639;-68
2022/11/29 08:57:32;;;;;;;36.13;19.63;;;;;;;;;;5025969;28;20477;-68
2022/11/29 09:00:04;;;;;;;39.40;21.00;;;;;;;;;;5025140;28;20498;-69
2022/11/29 09:02:41;;;;;;;38.27;22.00;;;;;;;;;;5025561;28;20466;-69
2022/11/29 09:05:13;;;;;;;41.73;22.00;;;;;;;;;;5019934;28;20463;-68
2022/11/29 09:07:45;;;;;;;39.90;19.90;;;;;;;;;;5030633;28;20557;-68
2022/11/29 09:10:13;;;;;;;40.27;20.40;;;;;;;;;;5026325;28;20558;-68
2022/11/29 09:12:43;;;;;;;40.60;21.90;;;;;;;;;;5026742;28;20468;-68
2022/11/29 09:15:12;;;;;;;40.67;21.97;;;;;;;;;;5027716;28;20799;-68
2022/11/29 09:17:40;;;;;;;41.33;21.57;;;;;;;;;;5035461;28;20478;-68
2022/11/29 09:20:13;;;;;;;41.13;23.20;;;;;;;;;;5023444;28;20539;-68
2022/11/29 09:22:45;;;;;;;53.27;29.60;;;;;;;;;;5020388;28;20549;-70
2022/11/29 09:25:17;;;;;;;50.07;25.87;;;;;;;;;;5033061;28;20477;-67
2022/11/29 09:27:49;;;;;;;40.70;19.27;;;;;;;;;;5027693;28;20758;-67
2022/11/29 09:30:25;;;;;;;37.70;19.77;;;;;;;;;;5013805;28;20563;-67
2022/11/29 09:32:55;;;;;;;42.63;21.37;;;;;;;;;;5020818;28;20761;-68
2022/11/29 09:35:24;;;;;;;35.63;21.60;;;;;;;;;;5027563;28;20537;-68
2022/11/29 09:37:57;;;;;;;36.50;18.97;;;;;;;;;;5027697;28;20478;-67
2022/11/29 09:40:28;;;;;;;92.97;49.70;;;;;;;;;;5015028;28;20920;-68
2022/11/29 09:43:06;;;;;;;40.23;20.67;;;;;;;;;;5028567;28;20901;-69
2022/11/29 09:45:40;;;;;;;44.77;21.70;;;;;;;;;;5033440;28;20466;-68
2022/11/29 09:48:25;;;;;;;33.93;18.70;;;;;;;;;;5032866;28;20462;-68
2022/11/29 09:51:09;;;;;;;36.37;19.50;;;;;;;;;;5033395;28;20492;-69
2022/11/29 09:53:44;;;;;;;41.80;20.97;;;;;;;;;;5029519;28;20467;-68
2022/11/29 09:56:16;;;;;;;35.00;19.40;;;;;;;;;;5035375;28;20552;-68
2022/11/29 09:58:47;;;;;;;39.70;22.43;;;;;;;;;;5036173;28;20525;-67
2022/11/29 10:01:19;;;;;;;35.93;18.90;;;;;;;;;;5028773;28;20558;-66
2022/11/29 10:03:50;;;;;;;36.07;19.73;;;;;;;;;;5035473;28;20458;-68
2022/11/29 10:06:33;;;;;;;40.00;22.20;;;;;;;;;;5024163;28;20464;-68
2022/11/29 10:09:02;;;;;;;38.80;21.63;;;;;;;;;;5025076;28;20462;-68
2022/11/29 10:11:43;;;;;;;53.57;31.30;;;;;;;;;;5013636;28;20929;-67
2022/11/29 10:14:24;;;;;;;36.00;21.87;;;;;;;;;;5011261;28;20974;-69
2022/11/29 10:16:54;;;;;;;37.70;20.23;;;;;;;;;;5022524;28;20500;-69
2022/11/29 10:19:27;;;;;;;40.77;21.63;;;;;;;;;;5020957;28;20461;-67
2022/11/29 10:22:31;;;;;;;36.40;19.10;;;;;;;;;;5034319;28;20458;-70
2022/11/29 10:28:05;;;;;;;41.77;24.80;;;;;;;;;;5021781;28;20797;-69
2022/11/29 10:30:33;;;;;;;39.67;18.67;;;;;;;;;;5025980;28;20539;-67
2022/11/29 10:33:16;;;;;;;36.60;21.00;;;;;;;;;;5034330;28;20572;-69
2022/11/29 10:35:44;;;;;;;39.30;21.20;;;;;;;;;;5024808;28;20463;-69
2022/11/29 10:38:18;;;;;;;34.43;20.00;;;;;;;;;;5013618;28;20530;-69
2022/11/29 10:40:51;;;;;;;38.80;23.90;;;;;;;;;;5033137;28;20462;-68
2022/11/29 10:43:20;;;;;;;30.87;19.50;;;;;;;;;;5036640;28;20766;-68
2022/11/29 10:45:56;;;;;;;48.83;22.23;;;;;;;;;;5037288;28;20911;-68
2022/11/29 10:48:25;;;;;;;47.13;21.27;;;;;;;;;;5037253;28;20504;-68
2022/11/29 10:50:53;;;;;;;37.50;21.17;;;;;;;;;;5032724;28;20533;-67
2022/11/29 10:53:25;;;;;;;40.93;21.30;;;;;;;;;;5029862;28;20495;-69
2022/11/29 10:55:56;;;;;;;45.20;25.43;;;;;;;;;;5029986;28;20545;-68
2022/11/29 10:58:25;;;;;;;37.40;20.13;;;;;;;;;;5017473;28;20592;-68
2022/11/29 11:01:01;;;;;;;43.07;24.00;;;;;;;;;;5030213;28;20558;-67
2022/11/29 11:06:55;;;;;;;38.77;21.13;;;;;;;;;;5029794;28;20800;-67
2022/11/29 11:09:49;;;;;;;44.53;22.77;;;;;;;;;;5030077;28;20458;-68
2022/11/29 11:12:20;;;;;;;39.50;21.17;;;;;;;;;;5026469;28;20949;-69
2022/11/29 11:14:51;;;;;;;40.90;23.10;;;;;;;;;;5029923;28;20465;-68
2022/11/29 11:17:26;;;;;;;41.93;24.17;;;;;;;;;;5029915;28;20474;-67
2022/11/29 11:20:00;;;;;;;42.57;26.40;;;;;;;;;;5024504;28;20569;-68
2022/11/29 11:22:34;;;;;;;45.67;23.97;;;;;;;;;;5029058;28;20556;-68
2022/11/29 11:25:08;;;;;;;45.23;23.37;;;;;;;;;;5038080;28;20458;-68
2022/11/29 11:27:38;;;;;;;41.23;24.70;;;;;;;;;;5038190;28;20565;-69
2022/11/29 11:30:08;;;;;;;39.13;22.83;;;;;;;;;;5034505;28;20469;-68
2022/11/29 11:32:37;;;;;;;42.10;22.33;;;;;;;;;;5025089;28;20915;-68
2022/11/29 11:35:25;;;;;;;40.50;23.27;;;;;;;;;;5033630;28;20447;-68
2022/11/29 11:37:57;;;;;;;36.30;23.47;;;;;;;;;;5003500;28;20490;-68
2022/11/29 11:40:28;;;;;;;38.50;21.00;;;;;;;;;;5025046;28;20466;-68
2022/11/29 11:43:01;;;;;;;38.53;22.63;;;;;;;;;;5026349;28;20465;-67
2022/11/29 11:45:43;;;;;;;39.73;23.17;;;;;;;;;;5026896;28;20462;-67
2022/11/29 11:48:19;;;;;;;38.93;21.87;;;;;;;;;;5032122;28;20472;-68
2022/11/29 11:51:03;;;;;;;42.47;21.77;;;;;;;;;;5028327;28;20467;-68
2022/11/29 11:53:34;;;;;;;38.77;20.90;;;;;;;;;;5013072;28;20953;-68
2022/11/29 11:56:09;;;;;;;43.10;23.83;;;;;;;;;;5025460;28;20812;-69
2022/11/29 11:58:42;;;;;;;38.43;22.13;;;;;;;;;;5017971;28;20588;-67
2022/11/29 12:04:18;;;;;;;36.67;22.20;;;;;;;;;;5006494;28;20542;-66
2022/11/29 12:06:49;;;;;;;45.13;22.40;;;;;;;;;;5021888;28;20852;-67
2022/11/29 12:09:26;;;;;;;56.20;29.70;;;;;;;;;;5025647;28;20592;-68
2022/11/29 12:12:03;;;;;;;37.80;21.53;;;;;;;;;;5023263;28;20470;-68
2022/11/29 12:14:42;;;;;;;40.13;20.87;;;;;;;;;;5023494;28;20489;-68
2022/11/29 12:17:13;;;;;;;39.30;23.27;;;;;;;;;;5024149;28;20882;-68
2022/11/29 12:19:45;;;;;;;41.63;21.90;;;;;;;;;;5023762;28;20816;-67
2022/11/29 12:22:25;;;;;;;37.57;20.83;;;;;;;;;;5006842;28;20458;-68
2022/11/29 12:24:56;;;;;;;43.20;24.10;;;;;;;;;;5015996;28;20462;-68
2022/11/29 12:27:25;;;;;;;37.27;22.27;;;;;;;;;;5023490;28;20470;-67
2022/11/29 12:29:53;;;;;;;42.37;22.37;;;;;;;;;;5025822;28;20450;-67
2022/11/29 12:32:29;;;;;;;45.20;22.30;;;;;;;;;;5019236;28;21020;-67
2022/11/29 12:35:11;;;;;;;42.37;21.00;;;;;;;;;;5015711;28;20466;-68
2022/11/29 12:37:45;;;;;;;36.07;20.77;;;;;;;;;;5009553;28;20525;-69
2022/11/29 12:40:21;;;;;;;35.67;21.40;;;;;;;;;;5019796;28;20473;-68
2022/11/29 12:43:03;;;;;;;44.13;21.93;;;;;;;;;;5017939;28;20478;-67
2022/11/29 12:52:09;;;;;;;35.03;20.80;;;;;;;;;;5014904;28;20511;-68
2022/11/29 12:55:08;;;;;;;36.00;22.13;;;;;;;;;;5018426;28;20467;-67
2022/11/29 12:57:47;;;;;;;37.40;20.97;;;;;;;;;;5012159;28;20498;-67
2022/11/29 13:00:39;;;;;;;45.17;23.00;;;;;;;;;;5015542;28;20463;-67
2022/11/29 13:06:56;;;;;;;37.03;20.80;;;;;;;;;;5019775;28;20516;-68
2022/11/29 13:09:58;;;;;;;35.67;19.90;;;;;;;;;;5023328;28;20474;-69
2022/11/29 13:12:59;;;;;;;36.20;20.97;;;;;;;;;;5006895;28;20470;-69
2022/11/29 13:15:48;;;;;;;31.80;19.53;;;;;;;;;;5021226;28;20544;-67
2022/11/29 13:18:48;;;;;;;36.20;22.00;;;;;;;;;;5007595;28;20553;-68
2022/11/29 13:21:36;;;;;;;41.97;20.53;;;;;;;;;;5008519;28;20470;-68
2022/11/29 13:24:09;;;;;;;38.83;21.30;;;;;;;;;;5021015;28;20512;-68
2022/11/29 13:26:42;;;;;;;37.43;20.80;;;;;;;;;;5026682;28;20905;-68
2022/11/29 13:29:16;;;;;;;44.33;22.97;;;;;;;;;;5022077;28;20489;-68
2022/11/29 13:32:08;;;;;;;39.13;19.20;;;;;;;;;;5014820;28;20843;-68
2022/11/29 13:44:16;;;;;;;42.50;22.47;;;;;;;;;;5022911;28;21185;-69
2022/11/29 13:50:02;;;;;;;44.00;22.07;;;;;;;;;;5009750;28;20491;-68
2022/11/29 13:52:44;;;;;;;36.33;20.50;;;;;;;;;;5010258;28;20461;-68
2022/11/29 13:55:39;;;;;;;37.53;22.40;;;;;;;;;;5024714;28;20543;-66
2022/11/29 13:58:33;;;;;;;44.57;23.60;;;;;;;;;;5019869;28;20475;-68
2022/11/29 14:01:19;;;;;;;39.80;23.50;;;;;;;;;;5029333;28;20481;-68
2022/11/29 14:04:03;;;;;;;39.97;22.70;;;;;;;;;;5007841;28;20565;-68
2022/11/29 14:06:37;;;;;;;40.63;22.83;;;;;;;;;;4992013;28;20576;-67
2022/11/29 14:09:25;;;;;;;35.90;20.73;;;;;;;;;;5022560;28;20480;-72
2022/11/29 14:11:59;;;;;;;41.20;23.73;;;;;;;;;;5010583;28;20472;-67
2022/11/29 14:14:30;;;;;;;45.23;22.77;;;;;;;;;;5012084;28;20578;-66
2022/11/29 14:17:06;;;;;;;38.90;21.63;;;;;;;;;;5029561;28;20462;-66
2022/11/29 14:19:38;;;;;;;49.53;24.47;;;;;;;;;;5017138;28;20485;-69
2022/11/29 14:22:24;;;;;;;41.33;21.80;;;;;;;;;;5022841;28;20446;-67
2022/11/29 14:25:25;;;;;;;40.23;21.53;;;;;;;;;;5033821;28;20480;-67
2022/11/29 14:27:59;;;;;;;33.73;21.83;;;;;;;;;;5028089;28;20477;-68
2022/11/29 14:30:47;;;;;;;44.33;22.90;;;;;;;;;;5019547;28;20887;-67
2022/11/29 14:33:33;;;;;;;48.00;26.53;;;;;;;;;;4989390;28;20565;-67
2022/11/29 14:36:11;;;;;;;38.87;22.60;;;;;;;;;;5026876;28;20464;-67
2022/11/29 14:38:47;;;;;;;45.83;23.53;;;;;;;;;;5028762;28;20493;-66
2022/11/29 14:41:23;;;;;;;51.50;25.30;;;;;;;;;;5034137;28;20446;-67
2022/11/29 14:47:19;;;;;;;50.23;26.57;;;;;;;;;;5026650;28;20474;-67
2022/11/29 14:49:48;;;;;;;43.57;25.57;;;;;;;;;;5033757;28;20497;-66
2022/11/29 14:52:23;;;;;;;48.40;27.67;;;;;;;;;;5024897;28;20470;-67
2022/11/29 14:55:09;;;;;;;50.00;25.00;;;;;;;;;;5019149;28;20568;-66
2022/11/29 14:58:10;;;;;;;41.20;22.60;;;;;;;;;;5040778;28;20460;-67
2022/11/29 15:01:03;;;;;;;51.40;25.43;;;;;;;;;;5035200;28;20486;-67
2022/11/29 15:03:45;;;;;;;49.27;25.57;;;;;;;;;;5002765;28;20478;-67
2022/11/29 15:06:24;;;;;;;44.70;23.03;;;;;;;;;;5029658;28;20936;-67
2022/11/29 15:09:00;;;;;;;54.30;25.10;;;;;;;;;;5034066;28;20454;-66
2022/11/29 15:11:42;;;;;;;41.90;22.27;;;;;;;;;;5017624;28;20477;-67
2022/11/29 15:14:20;;;;;;;51.63;25.43;;;;;;;;;;5032541;28;20466;-67
2022/11/29 15:22:55;;;;;;;49.70;22.70;;;;;;;;;;5038171;28;20454;-66
2022/11/29 15:25:29;;;;;;;51.43;26.80;;;;;;;;;;5038908;28;20545;-66
2022/11/29 15:28:14;;;;;;;53.47;24.47;;;;;;;;;;5035718;28;20462;-67
2022/11/29 15:30:51;;;;;;;54.37;27.60;;;;;;;;;;5016008;28;20471;-66
2022/11/29 15:33:25;;;;;;;44.40;24.93;;;;;;;;;;5016394;28;20992;-67
2022/11/29 15:35:57;;;;;;;46.90;24.57;;;;;;;;;;5024345;28;20460;-67
2022/11/29 15:38:48;;;;;;;46.97;25.93;;;;;;;;;;5016282;28;20529;-66
2022/11/29 15:41:30;;;;;;;49.60;26.90;;;;;;;;;;5026122;28;20529;-67
2022/11/29 15:44:31;;;;;;;43.80;23.63;;;;;;;;;;5023267;28;20589;-66
2022/11/29 15:50:28;;;;;;;36.63;21.77;;;;;;;;;;5010510;28;20471;-66
2022/11/29 15:53:00;;;;;;;44.73;24.47;;;;;;;;;;5030333;28;20462;-66
2022/11/29 15:55:32;;;;;;;51.13;26.70;;;;;;;;;;5036904;28;20878;-67
2022/11/29 15:58:16;;;;;;;43.70;25.80;;;;;;;;;;5018619;28;20796;-71
2022/11/29 16:00:52;;;;;;;48.07;24.20;;;;;;;;;;5028340;28;20465;-67